sensor_id;sensor_type;location;lat;lon;timestamp;pressure;altitude;pressure_sealevel;temperature;humidity
45888;BME280;31595;51.418;7.572;2023-03-13T00:00:50;99176.31;;;11.64;59.76
45888;BME280;31595;51.418;7.572;2023-03-13T00:03:18;99173.13;;;11.65;59.86
45888;BME280;31595;51.418;7.572;2023-03-13T00:05:47;99170.59;;;11.60;59.84
45888;BME280;31595;51.418;7.572;2023-03-13T00:08:14;99154.44;;;11.66;59.75
45888;BME280;31595;51.418;7.572;2023-03-13T00:10:41;99159.44;;;11.60;60.06
45888;BME280;31595;51.418;7.572;2023-03-13T00:13:09;99157.59;;;11.64;60.40
45888;BME280;31595;51.418;7.572;2023-03-13T00:15:36;99131.31;;;11.65;60.31
45888;BME280;31595;51.418;7.572;2023-03-13T00:18:06;99123.38;;;11.67;60.66
45888;BME280;31595;51.418;7.572;2023-03-13T00:20:33;99121.78;;;11.66;60.47
45888;BME280;31595;51.418;7.572;2023-03-13T00:23:02;99127.81;;;11.68;60.89
45888;BME280;31595;51.418;7.572;2023-03-13T00:25:29;99105.97;;;11.70;60.65
45888;BME280;31595;51.418;7.572;2023-03-13T00:27:56;99112.63;;;11.82;60.99
45888;BME280;31595;51.418;7.572;2023-03-13T00:30:24;99104.19;;;11.78;60.70
45888;BME280;31595;51.418;7.572;2023-03-13T00:32:51;99102.22;;;11.78;60.85
45888;BME280;31595;51.418;7.572;2023-03-13T00:35:18;99115.53;;;11.85;60.69
45888;BME280;31595;51.418;7.572;2023-03-13T00:37:45;99101.72;;;11.89;60.48
45888;BME280;31595;51.418;7.572;2023-03-13T00:40:14;99101.91;;;11.96;60.16
45888;BME280;31595;51.418;7.572;2023-03-13T00:42:41;99110.28;;;11.96;60.78
45888;BME280;31595;51.418;7.572;2023-03-13T00:45:09;99095.41;;;11.92;61.26
45888;BME280;31595;51.418;7.572;2023-03-13T00:47:36;99110.91;;;12.05;60.84
45888;BME280;31595;51.418;7.572;2023-03-13T00:50:05;99111.75;;;12.06;60.94
45888;BME280;31595;51.418;7.572;2023-03-13T00:52:32;99090.91;;;12.03;62.58
45888;BME280;31595;51.418;7.572;2023-03-13T00:54:59;99085.25;;;12.00;62.37
45888;BME280;31595;51.418;7.572;2023-03-13T00:57:28;99068.53;;;12.00;63.15
45888;BME280;31595;51.418;7.572;2023-03-13T00:59:55;99062.66;;;11.89;64.22
45888;BME280;31595;51.418;7.572;2023-03-13T01:02:22;99048.13;;;11.83;64.70
45888;BME280;31595;51.418;7.572;2023-03-13T01:04:49;99055.94;;;11.77;64.47
45888;BME280;31595;51.418;7.572;2023-03-13T01:07:18;99054.22;;;11.73;64.25
45888;BME280;31595;51.418;7.572;2023-03-13T01:09:46;99057.28;;;11.84;63.98
45888;BME280;31595;51.418;7.572;2023-03-13T01:12:13;99073.50;;;11.78;64.17
45888;BME280;31595;51.418;7.572;2023-03-13T01:14:41;99037.75;;;11.68;64.97
45888;BME280;31595;51.418;7.572;2023-03-13T01:17:09;99021.72;;;11.65;64.64
45888;BME280;31595;51.418;7.572;2023-03-13T01:19:36;99011.81;;;11.67;65.04
45888;BME280;31595;51.418;7.572;2023-03-13T01:22:06;99013.19;;;11.57;66.08
45888;BME280;31595;51.418;7.572;2023-03-13T01:24:39;99000.31;;;11.53;66.70
45888;BME280;31595;51.418;7.572;2023-03-13T01:27:06;98996.50;;;11.45;67.02
45888;BME280;31595;51.418;7.572;2023-03-13T01:29:33;99000.16;;;11.33;66.82
45888;BME280;31595;51.418;7.572;2023-03-13T01:32:02;98978.53;;;11.43;66.75
45888;BME280;31595;51.418;7.572;2023-03-13T01:34:30;99000.16;;;11.33;67.00
45888;BME280;31595;51.418;7.572;2023-03-13T01:36:57;98967.16;;;11.35;67.03
45888;BME280;31595;51.418;7.572;2023-03-13T01:39:24;98957.66;;;11.36;66.29
45888;BME280;31595;51.418;7.572;2023-03-13T01:41:51;98955.75;;;11.41;66.77
45888;BME280;31595;51.418;7.572;2023-03-13T01:44:21;98953.88;;;11.45;66.59
45888;BME280;31595;51.418;7.572;2023-03-13T01:46:49;98952.44;;;11.51;66.49
45888;BME280;31595;51.418;7.572;2023-03-13T01:49:20;98945.78;;;11.55;66.00
45888;BME280;31595;51.418;7.572;2023-03-13T01:51:52;98946.31;;;11.61;65.88
45888;BME280;31595;51.418;7.572;2023-03-13T01:54:23;98963.69;;;11.54;66.68
45888;BME280;31595;51.418;7.572;2023-03-13T01:56:54;98936.97;;;11.53;67.30
45888;BME280;31595;51.418;7.572;2023-03-13T01:59:25;98918.09;;;11.47;68.08
45888;BME280;31595;51.418;7.572;2023-03-13T02:01:54;98920.69;;;11.40;68.82
45888;BME280;31595;51.418;7.572;2023-03-13T02:04:26;98911.84;;;11.37;69.47
45888;BME280;31595;51.418;7.572;2023-03-13T02:06:56;98912.31;;;11.40;69.63
45888;BME280;31595;51.418;7.572;2023-03-13T02:09:29;98904.47;;;11.29;70.34
45888;BME280;31595;51.418;7.572;2023-03-13T02:12:01;98882.28;;;11.33;70.45
45888;BME280;31595;51.418;7.572;2023-03-13T02:14:32;98865.81;;;11.28;71.54
45888;BME280;31595;51.418;7.572;2023-03-13T02:17:02;98881.13;;;11.34;70.81
45888;BME280;31595;51.418;7.572;2023-03-13T02:19:36;98862.66;;;11.29;71.32
45888;BME280;31595;51.418;7.572;2023-03-13T02:22:11;98873.34;;;11.27;72.16
45888;BME280;31595;51.418;7.572;2023-03-13T02:24:47;98868.97;;;11.26;72.41
45888;BME280;31595;51.418;7.572;2023-03-13T02:27:17;98868.97;;;11.26;72.47
45888;BME280;31595;51.418;7.572;2023-03-13T02:29:44;98852.25;;;11.26;72.93
45888;BME280;31595;51.418;7.572;2023-03-13T02:32:12;98854.69;;;11.28;73.09
45888;BME280;31595;51.418;7.572;2023-03-13T02:34:40;98856.28;;;11.29;73.48
45888;BME280;31595;51.418;7.572;2023-03-13T02:37:09;98817.00;;;11.18;73.61
45888;BME280;31595;51.418;7.572;2023-03-13T02:39:41;98822.47;;;11.14;74.02
45888;BME280;31595;51.418;7.572;2023-03-13T02:42:11;98830.31;;;11.09;74.91
45888;BME280;31595;51.418;7.572;2023-03-13T02:44:41;98808.53;;;10.99;75.37
45888;BME280;31595;51.418;7.572;2023-03-13T02:47:11;98804.84;;;10.94;75.67
45888;BME280;31595;51.418;7.572;2023-03-13T02:49:39;98797.03;;;10.84;76.05
45888;BME280;31595;51.418;7.572;2023-03-13T02:52:13;98796.13;;;10.80;76.95
45888;BME280;31595;51.418;7.572;2023-03-13T02:54:44;98806.28;;;10.88;76.78
45888;BME280;31595;51.418;7.572;2023-03-13T02:57:13;98783.19;;;10.88;76.69
45888;BME280;31595;51.418;7.572;2023-03-13T02:59:41;98768.81;;;10.86;77.00
45888;BME280;31595;51.418;7.572;2023-03-13T03:02:09;98790.66;;;10.84;77.02
45888;BME280;31595;51.418;7.572;2023-03-13T03:04:36;98777.19;;;10.86;77.91
45888;BME280;31595;51.418;7.572;2023-03-13T03:07:03;98789.91;;;10.87;77.47
45888;BME280;31595;51.418;7.572;2023-03-13T03:09:30;98774.22;;;10.94;77.50
45888;BME280;31595;51.418;7.572;2023-03-13T03:11:58;98779.06;;;10.97;77.30
45888;BME280;31595;51.418;7.572;2023-03-13T03:14:28;98768.00;;;11.01;77.05
45888;BME280;31595;51.418;7.572;2023-03-13T03:16:57;98757.50;;;10.94;77.68
45888;BME280;31595;51.418;7.572;2023-03-13T03:19:24;98766.66;;;10.95;77.91
45888;BME280;31595;51.418;7.572;2023-03-13T03:21:52;98743.91;;;10.93;77.81
45888;BME280;31595;51.418;7.572;2023-03-13T03:24:19;98748.41;;;10.97;77.83
45888;BME280;31595;51.418;7.572;2023-03-13T03:26:47;98745.38;;;11.03;77.53
45888;BME280;31595;51.418;7.572;2023-03-13T03:29:14;98756.06;;;11.01;77.52
45888;BME280;31595;51.418;7.572;2023-03-13T03:31:45;98737.06;;;11.06;78.01
45888;BME280;31595;51.418;7.572;2023-03-13T03:34:13;98720.00;;;11.08;77.59
45888;BME280;31595;51.418;7.572;2023-03-13T03:36:41;98724.34;;;11.05;78.08
45888;BME280;31595;51.418;7.572;2023-03-13T03:39:11;98726.13;;;11.13;77.68
45888;BME280;31595;51.418;7.572;2023-03-13T03:41:41;98742.28;;;11.08;78.36
45888;BME280;31595;51.418;7.572;2023-03-13T03:44:08;98705.19;;;11.04;78.64
45888;BME280;31595;51.418;7.572;2023-03-13T03:46:35;98713.56;;;10.88;80.72
45888;BME280;31595;51.418;7.572;2023-03-13T03:49:02;98718.75;;;10.57;85.02
45888;BME280;31595;51.418;7.572;2023-03-13T03:51:31;98717.06;;;10.69;85.71
45888;BME280;31595;51.418;7.572;2023-03-13T03:53:58;98741.41;;;10.72;84.34
45888;BME280;31595;51.418;7.572;2023-03-13T03:56:26;98719.13;;;10.72;84.21
45888;BME280;31595;51.418;7.572;2023-03-13T03:58:53;98723.72;;;10.80;84.38
45888;BME280;31595;51.418;7.572;2023-03-13T04:01:20;98723.50;;;10.73;83.71
45888;BME280;31595;51.418;7.572;2023-03-13T04:03:47;98714.53;;;10.80;83.55
45888;BME280;31595;51.418;7.572;2023-03-13T04:06:18;98720.19;;;10.83;83.32
45888;BME280;31595;51.418;7.572;2023-03-13T04:08:54;98687.56;;;11.00;82.80
45888;BME280;31595;51.418;7.572;2023-03-13T04:11:21;98696.81;;;11.04;82.11
45888;BME280;31595;51.418;7.572;2023-03-13T04:13:49;98746.28;;;11.07;81.48
45888;BME280;31595;51.418;7.572;2023-03-13T04:16:16;98706.41;;;11.22;80.72
45888;BME280;31595;51.418;7.572;2023-03-13T04:18:43;98693.72;;;11.25;80.03
45888;BME280;31595;51.418;7.572;2023-03-13T04:21:10;98674.41;;;11.32;79.72
45888;BME280;31595;51.418;7.572;2023-03-13T04:23:38;98686.16;;;11.41;79.55
45888;BME280;31595;51.418;7.572;2023-03-13T04:26:07;98710.50;;;11.44;78.78
45888;BME280;31595;51.418;7.572;2023-03-13T04:28:37;98713.28;;;11.44;78.35
45888;BME280;31595;51.418;7.572;2023-03-13T04:31:04;98690.06;;;11.56;78.20
45888;BME280;31595;51.418;7.572;2023-03-13T04:33:31;98707.38;;;11.65;77.79
45888;BME280;31595;51.418;7.572;2023-03-13T04:35:59;98722.88;;;11.63;78.20
45888;BME280;31595;51.418;7.572;2023-03-13T04:38:26;98705.13;;;11.71;77.76
45888;BME280;31595;51.418;7.572;2023-03-13T04:40:53;98694.72;;;11.68;78.20
45888;BME280;31595;51.418;7.572;2023-03-13T04:43:25;98710.69;;;11.71;78.38
45888;BME280;31595;51.418;7.572;2023-03-13T04:45:52;98683.34;;;11.76;78.54
45888;BME280;31595;51.418;7.572;2023-03-13T04:48:20;98690.25;;;11.83;78.44
45888;BME280;31595;51.418;7.572;2023-03-13T04:50:50;98696.53;;;11.79;78.75
45888;BME280;31595;51.418;7.572;2023-03-13T04:53:18;98666.53;;;11.92;78.75
45888;BME280;31595;51.418;7.572;2023-03-13T04:55:46;98681.13;;;11.66;81.43
45888;BME280;31595;51.418;7.572;2023-03-13T04:58:14;98671.75;;;11.39;84.25
45888;BME280;31595;51.418;7.572;2023-03-13T05:00:45;98695.44;;;11.29;86.04
45888;BME280;31595;51.418;7.572;2023-03-13T05:03:12;98690.63;;;10.94;91.83
45888;BME280;31595;51.418;7.572;2023-03-13T05:05:39;98676.25;;;10.76;94.70
45888;BME280;31595;51.418;7.572;2023-03-13T05:08:07;98674.72;;;10.79;95.61
45888;BME280;31595;51.418;7.572;2023-03-13T05:10:35;98666.38;;;10.79;95.28
45888;BME280;31595;51.418;7.572;2023-03-13T05:13:03;98654.78;;;10.93;94.04
45888;BME280;31595;51.418;7.572;2023-03-13T05:15:30;98656.81;;;11.12;92.90
45888;BME280;31595;51.418;7.572;2023-03-13T05:17:58;98649.94;;;11.25;91.99
45888;BME280;31595;51.418;7.572;2023-03-13T05:20:26;98648.88;;;11.30;91.29
45888;BME280;31595;51.418;7.572;2023-03-13T05:22:53;98641.41;;;11.34;90.08
45888;BME280;31595;51.418;7.572;2023-03-13T05:25:20;98643.88;;;11.39;89.27
45888;BME280;31595;51.418;7.572;2023-03-13T05:27:47;98664.28;;;11.43;88.54
45888;BME280;31595;51.418;7.572;2023-03-13T05:30:15;98648.72;;;11.42;88.00
45888;BME280;31595;51.418;7.572;2023-03-13T05:32:42;98641.63;;;11.45;87.44
45888;BME280;31595;51.418;7.572;2023-03-13T05:35:10;98644.56;;;11.52;87.33
45888;BME280;31595;51.418;7.572;2023-03-13T05:37:38;98631.50;;;11.56;86.83
45888;BME280;31595;51.418;7.572;2023-03-13T05:40:06;98624.53;;;11.66;86.33
45888;BME280;31595;51.418;7.572;2023-03-13T05:42:34;98637.59;;;11.62;85.84
45888;BME280;31595;51.418;7.572;2023-03-13T05:45:01;98626.50;;;11.65;85.86
45888;BME280;31595;51.418;7.572;2023-03-13T05:47:29;98651.78;;;11.72;85.18
45888;BME280;31595;51.418;7.572;2023-03-13T05:49:58;98637.50;;;11.77;84.55
45888;BME280;31595;51.418;7.572;2023-03-13T05:52:27;98636.94;;;11.88;84.77
45888;BME280;31595;51.418;7.572;2023-03-13T05:54:54;98635.94;;;11.96;84.27
45888;BME280;31595;51.418;7.572;2023-03-13T05:57:22;98643.69;;;12.06;83.80
45888;BME280;31595;51.418;7.572;2023-03-13T05:59:49;98630.63;;;12.10;83.72
45888;BME280;31595;51.418;7.572;2023-03-13T06:02:17;98632.81;;;12.21;83.18
45888;BME280;31595;51.418;7.572;2023-03-13T06:04:45;98633.97;;;12.19;83.69
45888;BME280;31595;51.418;7.572;2023-03-13T06:07:12;98633.25;;;12.23;82.91
45888;BME280;31595;51.418;7.572;2023-03-13T06:09:41;98640.56;;;12.31;83.04
45888;BME280;31595;51.418;7.572;2023-03-13T06:12:10;98656.28;;;12.39;82.28
45888;BME280;31595;51.418;7.572;2023-03-13T06:14:37;98656.84;;;12.48;81.75
45888;BME280;31595;51.418;7.572;2023-03-13T06:17:04;98646.09;;;12.50;81.18
45888;BME280;31595;51.418;7.572;2023-03-13T06:19:32;98630.66;;;12.56;81.35
45888;BME280;31595;51.418;7.572;2023-03-13T06:21:59;98625.59;;;12.66;80.82
45888;BME280;31595;51.418;7.572;2023-03-13T06:24:26;98643.91;;;12.63;80.86
45888;BME280;31595;51.418;7.572;2023-03-13T06:26:55;98633.72;;;12.74;80.88
45888;BME280;31595;51.418;7.572;2023-03-13T06:29:22;98647.03;;;12.81;80.52
45888;BME280;31595;51.418;7.572;2023-03-13T06:31:49;98631.50;;;12.84;79.77
45888;BME280;31595;51.418;7.572;2023-03-13T06:34:17;98632.78;;;12.90;79.61
45888;BME280;31595;51.418;7.572;2023-03-13T06:36:44;98637.25;;;12.94;79.75
45888;BME280;31595;51.418;7.572;2023-03-13T06:39:12;98618.84;;;12.93;78.51
45888;BME280;31595;51.418;7.572;2023-03-13T06:41:39;98625.72;;;12.99;78.46
45888;BME280;31595;51.418;7.572;2023-03-13T06:44:08;98626.13;;;12.98;79.05
45888;BME280;31595;51.418;7.572;2023-03-13T06:46:35;98620.13;;;12.99;79.09
45888;BME280;31595;51.418;7.572;2023-03-13T06:49:02;98631.75;;;13.02;78.92
45888;BME280;31595;51.418;7.572;2023-03-13T06:51:31;98628.66;;;13.07;77.57
45888;BME280;31595;51.418;7.572;2023-03-13T06:53:58;98613.81;;;13.03;77.56
45888;BME280;31595;51.418;7.572;2023-03-13T06:56:27;98615.84;;;13.06;77.96
45888;BME280;31595;51.418;7.572;2023-03-13T06:58:54;98617.19;;;13.15;78.48
45888;BME280;31595;51.418;7.572;2023-03-13T07:01:23;98637.63;;;13.19;77.06
45888;BME280;31595;51.418;7.572;2023-03-13T07:03:50;98611.91;;;13.33;78.06
45888;BME280;31595;51.418;7.572;2023-03-13T07:06:17;98633.06;;;13.34;77.64
45888;BME280;31595;51.418;7.572;2023-03-13T07:08:45;98632.06;;;13.50;76.54
45888;BME280;31595;51.418;7.572;2023-03-13T07:11:13;98625.75;;;13.56;77.56
45888;BME280;31595;51.418;7.572;2023-03-13T07:13:40;98633.88;;;13.65;75.97
45888;BME280;31595;51.418;7.572;2023-03-13T07:16:10;98640.69;;;13.68;76.42
45888;BME280;31595;51.418;7.572;2023-03-13T07:18:39;98618.88;;;13.80;76.01
45888;BME280;31595;51.418;7.572;2023-03-13T07:21:09;98631.94;;;13.69;75.44
45888;BME280;31595;51.418;7.572;2023-03-13T07:23:37;98633.53;;;13.70;75.77
45888;BME280;31595;51.418;7.572;2023-03-13T07:26:09;98643.97;;;13.73;75.06
45888;BME280;31595;51.418;7.572;2023-03-13T07:28:37;98654.47;;;13.84;74.78
45888;BME280;31595;51.418;7.572;2023-03-13T07:31:05;98651.25;;;13.81;74.06
45888;BME280;31595;51.418;7.572;2023-03-13T07:33:33;98636.28;;;14.00;74.45
45888;BME280;31595;51.418;7.572;2023-03-13T07:36:03;98639.47;;;13.99;74.20
45888;BME280;31595;51.418;7.572;2023-03-13T07:38:30;98635.47;;;14.00;74.17
45888;BME280;31595;51.418;7.572;2023-03-13T07:40:58;98636.00;;;14.09;74.12
45888;BME280;31595;51.418;7.572;2023-03-13T07:43:25;98628.88;;;14.19;72.72
45888;BME280;31595;51.418;7.572;2023-03-13T07:45:55;98650.91;;;14.20;72.46
45888;BME280;31595;51.418;7.572;2023-03-13T07:48:24;98614.47;;;14.17;71.61
45888;BME280;31595;51.418;7.572;2023-03-13T07:50:54;98610.22;;;14.34;72.22
45888;BME280;31595;51.418;7.572;2023-03-13T07:53:23;98608.34;;;14.45;71.80
45888;BME280;31595;51.418;7.572;2023-03-13T07:55:54;98593.25;;;14.57;71.32
45888;BME280;31595;51.418;7.572;2023-03-13T07:58:23;98593.56;;;14.48;70.53
45888;BME280;31595;51.418;7.572;2023-03-13T08:00:51;98580.81;;;14.54;71.35
45888;BME280;31595;51.418;7.572;2023-03-13T08:03:18;98597.16;;;14.49;69.94
45888;BME280;31595;51.418;7.572;2023-03-13T08:05:46;98581.59;;;14.55;70.36
45888;BME280;31595;51.418;7.572;2023-03-13T08:08:13;98608.09;;;14.57;69.85
45888;BME280;31595;51.418;7.572;2023-03-13T08:10:42;98596.88;;;14.57;69.41
45888;BME280;31595;51.418;7.572;2023-03-13T08:13:09;98586.09;;;14.59;70.37
45888;BME280;31595;51.418;7.572;2023-03-13T08:15:37;98577.97;;;14.51;69.70
45888;BME280;31595;51.418;7.572;2023-03-13T08:18:04;98577.59;;;14.52;70.24
45888;BME280;31595;51.418;7.572;2023-03-13T08:20:31;98567.28;;;14.60;69.45
45888;BME280;31595;51.418;7.572;2023-03-13T08:22:58;98572.78;;;14.49;68.68
45888;BME280;31595;51.418;7.572;2023-03-13T08:25:26;98572.09;;;14.59;69.97
45888;BME280;31595;51.418;7.572;2023-03-13T08:27:54;98579.22;;;14.53;69.14
45888;BME280;31595;51.418;7.572;2023-03-13T08:30:22;98565.78;;;14.73;68.04
45888;BME280;31595;51.418;7.572;2023-03-13T08:32:49;98570.53;;;14.69;67.32
45888;BME280;31595;51.418;7.572;2023-03-13T08:35:16;98566.66;;;14.88;67.65
45888;BME280;31595;51.418;7.572;2023-03-13T08:37:43;98565.09;;;14.91;68.54
45888;BME280;31595;51.418;7.572;2023-03-13T08:40:11;98551.47;;;14.89;67.75
45888;BME280;31595;51.418;7.572;2023-03-13T08:42:38;98575.56;;;15.01;66.75
45888;BME280;31595;51.418;7.572;2023-03-13T08:45:08;98569.47;;;14.85;66.46
45888;BME280;31595;51.418;7.572;2023-03-13T08:47:35;98563.47;;;14.86;66.63
45888;BME280;31595;51.418;7.572;2023-03-13T08:50:03;98589.53;;;14.94;67.35
45888;BME280;31595;51.418;7.572;2023-03-13T08:52:30;98565.94;;;14.98;65.95
45888;BME280;31595;51.418;7.572;2023-03-13T08:54:57;98582.81;;;15.06;67.26
45888;BME280;31595;51.418;7.572;2023-03-13T08:57:25;98568.06;;;15.19;66.75
45888;BME280;31595;51.418;7.572;2023-03-13T08:59:52;98615.56;;;14.94;65.87
45888;BME280;31595;51.418;7.572;2023-03-13T09:02:20;98579.59;;;15.04;66.48
45888;BME280;31595;51.418;7.572;2023-03-13T09:04:48;98588.75;;;14.97;66.90
45888;BME280;31595;51.418;7.572;2023-03-13T09:07:15;98631.16;;;14.88;66.38
45888;BME280;31595;51.418;7.572;2023-03-13T09:09:43;98582.00;;;15.01;67.09
45888;BME280;31595;51.418;7.572;2023-03-13T09:12:10;98577.66;;;15.15;67.38
45888;BME280;31595;51.418;7.572;2023-03-13T09:14:37;98580.50;;;15.22;67.33
45888;BME280;31595;51.418;7.572;2023-03-13T09:17:04;98580.09;;;15.20;66.80
45888;BME280;31595;51.418;7.572;2023-03-13T09:19:33;98596.50;;;15.18;66.48
45888;BME280;31595;51.418;7.572;2023-03-13T09:22:00;98611.28;;;15.08;67.61
45888;BME280;31595;51.418;7.572;2023-03-13T09:24:27;98584.81;;;15.05;67.27
45888;BME280;31595;51.418;7.572;2023-03-13T09:26:55;98589.63;;;15.05;68.11
45888;BME280;31595;51.418;7.572;2023-03-13T09:29:22;98589.66;;;15.12;67.21
45888;BME280;31595;51.418;7.572;2023-03-13T09:31:49;98586.41;;;15.02;67.19
45888;BME280;31595;51.418;7.572;2023-03-13T09:34:16;98581.19;;;15.05;68.21
45888;BME280;31595;51.418;7.572;2023-03-13T09:36:45;98605.41;;;15.34;67.58
45888;BME280;31595;51.418;7.572;2023-03-13T09:39:12;98561.16;;;15.87;65.90
45888;BME280;31595;51.418;7.572;2023-03-13T09:41:44;98555.63;;;16.40;64.16
45888;BME280;31595;51.418;7.572;2023-03-13T09:44:18;98568.09;;;16.82;62.12
45888;BME280;31595;51.418;7.572;2023-03-13T09:46:57;98550.41;;;16.32;63.70
45888;BME280;31595;51.418;7.572;2023-03-13T09:49:32;98566.41;;;16.06;64.56
45888;BME280;31595;51.418;7.572;2023-03-13T09:52:14;98547.94;;;16.01;65.40
45888;BME280;31595;51.418;7.572;2023-03-13T09:54:47;98565.19;;;16.00;65.84
45888;BME280;31595;51.418;7.572;2023-03-13T09:57:21;98534.75;;;16.34;66.12
45888;BME280;31595;51.418;7.572;2023-03-13T09:59:54;98536.75;;;16.34;64.64
45888;BME280;31595;51.418;7.572;2023-03-13T10:02:29;98552.78;;;17.01;63.41
45888;BME280;31595;51.418;7.572;2023-03-13T10:05:02;98527.66;;;18.76;59.43
45888;BME280;31595;51.418;7.572;2023-03-13T10:07:33;98541.63;;;19.63;55.22
45888;BME280;31595;51.418;7.572;2023-03-13T10:10:01;98548.47;;;20.78;50.81
45888;BME280;31595;51.418;7.572;2023-03-13T10:12:31;98518.59;;;19.68;52.92
45888;BME280;31595;51.418;7.572;2023-03-13T10:15:17;98517.38;;;20.51;52.36
45888;BME280;31595;51.418;7.572;2023-03-13T10:17:46;98519.94;;;20.68;49.96
45888;BME280;31595;51.418;7.572;2023-03-13T10:20:21;98508.91;;;20.23;50.87
45888;BME280;31595;51.418;7.572;2023-03-13T10:22:55;98510.78;;;21.24;49.66
45888;BME280;31595;51.418;7.572;2023-03-13T10:25:29;98512.31;;;20.38;50.75
45888;BME280;31595;51.418;7.572;2023-03-13T10:27:58;98502.06;;;21.35;48.29
45888;BME280;31595;51.418;7.572;2023-03-13T10:30:28;98502.06;;;19.66;51.94
45888;BME280;31595;51.418;7.572;2023-03-13T10:33:13;98500.13;;;19.91;51.99
45888;BME280;31595;51.418;7.572;2023-03-13T10:35:43;98513.31;;;20.52;48.71
45888;BME280;31595;51.418;7.572;2023-03-13T10:38:13;98504.88;;;19.70;50.23
45888;BME280;31595;51.418;7.572;2023-03-13T10:40:41;98496.47;;;23.90;41.24
45888;BME280;31595;51.418;7.572;2023-03-13T10:43:13;98497.56;;;24.70;39.56
45888;BME280;31595;51.418;7.572;2023-03-13T10:45:42;98486.09;;;23.29;41.38
45888;BME280;31595;51.418;7.572;2023-03-13T10:48:11;98486.09;;;24.48;39.30
45888;BME280;31595;51.418;7.572;2023-03-13T10:50:42;98470.63;;;24.36;39.40
45888;BME280;31595;51.418;7.572;2023-03-13T10:53:24;98475.50;;;23.00;41.72
45888;BME280;31595;51.418;7.572;2023-03-13T10:55:52;98485.88;;;21.76;43.41
45888;BME280;31595;51.418;7.572;2023-03-13T10:58:25;98459.81;;;20.84;44.68
45888;BME280;31595;51.418;7.572;2023-03-13T11:01:12;98465.91;;;20.36;46.40
45888;BME280;31595;51.418;7.572;2023-03-13T11:03:42;98504.69;;;19.84;47.89
45888;BME280;31595;51.418;7.572;2023-03-13T11:06:27;98486.91;;;20.35;46.97
45888;BME280;31595;51.418;7.572;2023-03-13T11:09:02;98479.06;;;20.46;46.24
45888;BME280;31595;51.418;7.572;2023-03-13T11:11:30;98468.41;;;19.79;48.49
45888;BME280;31595;51.418;7.572;2023-03-13T11:14:14;98506.53;;;19.64;47.40
45888;BME280;31595;51.418;7.572;2023-03-13T11:16:46;98458.81;;;19.42;48.10
45888;BME280;31595;51.418;7.572;2023-03-13T11:19:34;98468.22;;;21.68;44.42
45888;BME280;31595;51.418;7.572;2023-03-13T11:22:14;98451.84;;;20.56;46.08
45888;BME280;31595;51.418;7.572;2023-03-13T11:24:48;98438.88;;;21.58;44.47
45888;BME280;31595;51.418;7.572;2023-03-13T11:27:25;98462.53;;;20.68;44.56
45888;BME280;31595;51.418;7.572;2023-03-13T11:30:03;98443.94;;;20.20;45.99
45888;BME280;31595;51.418;7.572;2023-03-13T11:32:36;98443.09;;;20.23;46.26
45888;BME280;31595;51.418;7.572;2023-03-13T11:35:15;98436.34;;;20.17;46.27
45888;BME280;31595;51.418;7.572;2023-03-13T11:37:45;98435.88;;;19.95;46.73
45888;BME280;31595;51.418;7.572;2023-03-13T11:40:18;98442.63;;;19.77;47.39
45888;BME280;31595;51.418;7.572;2023-03-13T11:43:02;98425.84;;;19.63;47.85
45888;BME280;31595;51.418;7.572;2023-03-13T11:46:00;98407.88;;;19.80;47.34
45888;BME280;31595;51.418;7.572;2023-03-13T11:51:39;98394.56;;;20.04;46.30
45888;BME280;31595;51.418;7.572;2023-03-13T11:54:29;98405.16;;;19.97;46.35
45888;BME280;31595;51.418;7.572;2023-03-13T11:57:07;98384.06;;;20.72;44.84
45888;BME280;31595;51.418;7.572;2023-03-13T11:59:43;98402.97;;;20.32;45.43
45888;BME280;31595;51.418;7.572;2023-03-13T12:02:20;98378.00;;;21.83;42.78
45888;BME280;31595;51.418;7.572;2023-03-13T12:04:51;98373.50;;;22.02;41.89
45888;BME280;31595;51.418;7.572;2023-03-13T12:07:25;98403.84;;;21.12;43.36
45888;BME280;31595;51.418;7.572;2023-03-13T12:09:56;98372.94;;;21.01;44.79
45888;BME280;31595;51.418;7.572;2023-03-13T12:12:32;98371.81;;;21.35;43.46
45888;BME280;31595;51.418;7.572;2023-03-13T12:15:15;98358.88;;;20.78;44.78
45888;BME280;31595;51.418;7.572;2023-03-13T12:17:48;98353.66;;;20.96;44.97
45888;BME280;31595;51.418;7.572;2023-03-13T12:20:21;98347.72;;;20.47;45.54
45888;BME280;31595;51.418;7.572;2023-03-13T12:22:55;98349.16;;;21.72;43.25
45888;BME280;31595;51.418;7.572;2023-03-13T12:25:26;98365.34;;;20.98;45.03
45888;BME280;31595;51.418;7.572;2023-03-13T12:28:02;98350.63;;;23.26;40.54
45888;BME280;31595;51.418;7.572;2023-03-13T12:30:36;98349.03;;;24.02;39.14
45888;BME280;31595;51.418;7.572;2023-03-13T12:33:13;98318.84;;;28.43;32.09
45888;BME280;31595;51.418;7.572;2023-03-13T12:35:46;98315.53;;;29.79;28.63
45888;BME280;31595;51.418;7.572;2023-03-13T12:38:19;98322.94;;;28.66;29.43
45888;BME280;31595;51.418;7.572;2023-03-13T12:40:52;98338.50;;;31.28;26.23
45888;BME280;31595;51.418;7.572;2023-03-13T12:43:29;98327.13;;;26.89;31.37
45888;BME280;31595;51.418;7.572;2023-03-13T12:46:13;98330.25;;;24.52;35.33
45888;BME280;31595;51.418;7.572;2023-03-13T12:48:55;98313.28;;;24.14;36.54
45888;BME280;31595;51.418;7.572;2023-03-13T12:51:38;98306.97;;;23.97;36.43
45888;BME280;31595;51.418;7.572;2023-03-13T12:54:32;98307.47;;;23.31;37.84
45888;BME280;31595;51.418;7.572;2023-03-13T13:00:06;98282.91;;;25.52;34.07
45888;BME280;31595;51.418;7.572;2023-03-13T13:02:40;98292.81;;;23.58;38.12
45888;BME280;31595;51.418;7.572;2023-03-13T13:05:17;98297.31;;;22.49;39.82
45888;BME280;31595;51.418;7.572;2023-03-13T13:07:51;98325.50;;;21.62;41.66
45888;BME280;31595;51.418;7.572;2023-03-13T13:10:21;98306.28;;;21.53;41.78
45888;BME280;31595;51.418;7.572;2023-03-13T13:13:18;98299.72;;;21.56;42.12
45888;BME280;31595;51.418;7.572;2023-03-13T13:16:01;98298.16;;;21.19;42.85
45888;BME280;31595;51.418;7.572;2023-03-13T13:18:32;98280.88;;;20.57;43.83
45888;BME280;31595;51.418;7.572;2023-03-13T13:21:20;98294.03;;;21.89;41.02